sensor_id;sensor_type;location;lat;lon;timestamp;P1;durP1;ratioP1;P2;durP2;ratioP2
13487;SDS011;6816;48.506;9.050;2022-10-16T00:00:52;2.70;;;2.13;;
13487;SDS011;6816;48.506;9.050;2022-10-16T00:03:53;2.70;;;2.20;;
13487;SDS011;6816;48.506;9.050;2022-10-16T00:06:54;2.63;;;2.00;;
13487;SDS011;6816;48.506;9.050;2022-10-16T00:09:55;7.73;;;1.77;;
13487;SDS011;6816;48.506;9.050;2022-10-16T00:12:56;2.83;;;1.70;;
13487;SDS011;6816;48.506;9.050;2022-10-16T00:15:57;1.60;;;1.50;;
13487;SDS011;6816;48.506;9.050;2022-10-16T00:18:59;4.97;;;1.63;;
13487;SDS011;6816;48.506;9.050;2022-10-16T00:22:00;2.87;;;1.40;;
13487;SDS011;6816;48.506;9.050;2022-10-16T00:25:00;4.83;;;1.40;;
13487;SDS011;6816;48.506;9.050;2022-10-16T00:28:01;2.10;;;1.60;;
13487;SDS011;6816;48.506;9.050;2022-10-16T00:31:02;2.73;;;1.37;;
13487;SDS011;6816;48.506;9.050;2022-10-16T00:34:04;2.67;;;1.70;;
13487;SDS011;6816;48.506;9.050;2022-10-16T00:37:05;4.13;;;1.57;;
13487;SDS011;6816;48.506;9.050;2022-10-16T00:40:06;1.53;;;1.30;;
13487;SDS011;6816;48.506;9.050;2022-10-16T00:46:40;3.67;;;1.40;;
13487;SDS011;6816;48.506;9.050;2022-10-16T00:49:42;3.33;;;1.33;;
13487;SDS011;6816;48.506;9.050;2022-10-16T00:52:44;8.30;;;1.73;;
13487;SDS011;6816;48.506;9.050;2022-10-16T00:55:47;2.70;;;1.30;;
13487;SDS011;6816;48.506;9.050;2022-10-16T00:58:47;1.63;;;1.20;;
13487;SDS011;6816;48.506;9.050;2022-10-16T01:01:48;2.93;;;1.10;;
13487;SDS011;6816;48.506;9.050;2022-10-16T01:04:50;3.20;;;1.20;;
13487;SDS011;6816;48.506;9.050;2022-10-16T01:08:08;1.93;;;1.30;;
13487;SDS011;6816;48.506;9.050;2022-10-16T01:11:19;3.47;;;1.30;;
13487;SDS011;6816;48.506;9.050;2022-10-16T01:14:45;2.60;;;1.00;;
13487;SDS011;6816;48.506;9.050;2022-10-16T01:21:06;4.23;;;1.20;;
13487;SDS011;6816;48.506;9.050;2022-10-16T01:27:45;2.40;;;1.23;;
13487;SDS011;6816;48.506;9.050;2022-10-16T01:30:48;1.73;;;1.20;;
13487;SDS011;6816;48.506;9.050;2022-10-16T01:34:00;5.50;;;1.30;;
13487;SDS011;6816;48.506;9.050;2022-10-16T01:37:05;1.23;;;1.00;;
13487;SDS011;6816;48.506;9.050;2022-10-16T01:40:12;2.97;;;1.43;;
13487;SDS011;6816;48.506;9.050;2022-10-16T01:43:16;3.03;;;1.30;;
13487;SDS011;6816;48.506;9.050;2022-10-16T01:46:22;2.07;;;1.20;;
13487;SDS011;6816;48.506;9.050;2022-10-16T01:49:25;2.60;;;1.40;;
13487;SDS011;6816;48.506;9.050;2022-10-16T01:52:30;3.40;;;1.37;;
13487;SDS011;6816;48.506;9.050;2022-10-16T01:55:40;3.90;;;1.50;;
13487;SDS011;6816;48.506;9.050;2022-10-16T01:58:46;1.53;;;1.30;;
13487;SDS011;6816;48.506;9.050;2022-10-16T02:01:58;1.53;;;1.20;;
13487;SDS011;6816;48.506;9.050;2022-10-16T02:08:10;1.70;;;1.17;;
13487;SDS011;6816;48.506;9.050;2022-10-16T02:11:11;3.77;;;1.30;;
13487;SDS011;6816;48.506;9.050;2022-10-16T02:14:12;1.63;;;1.03;;
13487;SDS011;6816;48.506;9.050;2022-10-16T02:17:14;1.17;;;1.00;;
13487;SDS011;6816;48.506;9.050;2022-10-16T02:20:17;3.47;;;1.30;;
13487;SDS011;6816;48.506;9.050;2022-10-16T02:26:51;5.03;;;0.97;;
13487;SDS011;6816;48.506;9.050;2022-10-16T02:30:00;1.70;;;1.10;;
13487;SDS011;6816;48.506;9.050;2022-10-16T02:33:13;5.23;;;1.20;;
13487;SDS011;6816;48.506;9.050;2022-10-16T02:36:15;5.60;;;0.80;;
13487;SDS011;6816;48.506;9.050;2022-10-16T02:39:15;3.30;;;1.03;;
13487;SDS011;6816;48.506;9.050;2022-10-16T02:42:18;2.10;;;1.10;;
13487;SDS011;6816;48.506;9.050;2022-10-16T02:45:19;1.93;;;1.13;;
13487;SDS011;6816;48.506;9.050;2022-10-16T02:48:20;2.77;;;1.03;;
13487;SDS011;6816;48.506;9.050;2022-10-16T02:51:20;3.50;;;1.20;;
13487;SDS011;6816;48.506;9.050;2022-10-16T02:54:21;1.77;;;1.27;;
13487;SDS011;6816;48.506;9.050;2022-10-16T02:57:21;1.63;;;1.30;;
13487;SDS011;6816;48.506;9.050;2022-10-16T03:00:22;1.30;;;1.13;;
13487;SDS011;6816;48.506;9.050;2022-10-16T03:03:23;2.87;;;1.20;;
13487;SDS011;6816;48.506;9.050;2022-10-16T03:06:23;3.87;;;1.30;;
13487;SDS011;6816;48.506;9.050;2022-10-16T03:09:24;2.03;;;1.03;;
13487;SDS011;6816;48.506;9.050;2022-10-16T03:12:24;3.23;;;1.20;;
13487;SDS011;6816;48.506;9.050;2022-10-16T03:15:28;3.43;;;1.17;;
13487;SDS011;6816;48.506;9.050;2022-10-16T03:18:29;2.40;;;1.13;;
13487;SDS011;6816;48.506;9.050;2022-10-16T03:21:29;6.77;;;1.30;;
13487;SDS011;6816;48.506;9.050;2022-10-16T03:24:30;2.33;;;1.63;;
13487;SDS011;6816;48.506;9.050;2022-10-16T03:27:31;2.93;;;1.30;;
13487;SDS011;6816;48.506;9.050;2022-10-16T03:30:31;7.33;;;1.93;;
13487;SDS011;6816;48.506;9.050;2022-10-16T03:33:32;2.63;;;1.20;;
13487;SDS011;6816;48.506;9.050;2022-10-16T03:36:32;1.97;;;1.20;;
13487;SDS011;6816;48.506;9.050;2022-10-16T03:39:33;2.60;;;1.20;;
13487;SDS011;6816;48.506;9.050;2022-10-16T03:42:34;2.37;;;1.00;;
13487;SDS011;6816;48.506;9.050;2022-10-16T03:45:34;1.87;;;1.27;;
13487;SDS011;6816;48.506;9.050;2022-10-16T03:48:35;2.17;;;0.90;;
13487;SDS011;6816;48.506;9.050;2022-10-16T03:51:35;2.73;;;1.33;;
13487;SDS011;6816;48.506;9.050;2022-10-16T03:54:36;2.77;;;1.10;;
13487;SDS011;6816;48.506;9.050;2022-10-16T03:57:37;5.17;;;1.10;;
13487;SDS011;6816;48.506;9.050;2022-10-16T04:00:41;1.53;;;0.90;;
13487;SDS011;6816;48.506;9.050;2022-10-16T04:03:42;4.20;;;1.17;;
13487;SDS011;6816;48.506;9.050;2022-10-16T04:06:43;2.60;;;0.93;;
13487;SDS011;6816;48.506;9.050;2022-10-16T04:09:43;2.70;;;1.20;;
13487;SDS011;6816;48.506;9.050;2022-10-16T04:12:44;4.70;;;1.30;;
13487;SDS011;6816;48.506;9.050;2022-10-16T04:15:45;2.10;;;1.10;;
13487;SDS011;6816;48.506;9.050;2022-10-16T04:18:46;2.57;;;1.40;;
13487;SDS011;6816;48.506;9.050;2022-10-16T04:21:46;9.43;;;1.83;;
13487;SDS011;6816;48.506;9.050;2022-10-16T04:24:47;1.37;;;1.07;;
13487;SDS011;6816;48.506;9.050;2022-10-16T04:27:47;1.73;;;1.27;;
13487;SDS011;6816;48.506;9.050;2022-10-16T04:30:48;1.27;;;1.10;;
13487;SDS011;6816;48.506;9.050;2022-10-16T04:33:49;3.33;;;1.50;;
13487;SDS011;6816;48.506;9.050;2022-10-16T04:36:49;1.00;;;0.90;;
13487;SDS011;6816;48.506;9.050;2022-10-16T04:39:50;1.20;;;1.00;;
13487;SDS011;6816;48.506;9.050;2022-10-16T04:42:51;2.60;;;1.30;;
13487;SDS011;6816;48.506;9.050;2022-10-16T04:45:51;1.73;;;1.00;;
13487;SDS011;6816;48.506;9.050;2022-10-16T04:48:53;4.30;;;1.10;;
13487;SDS011;6816;48.506;9.050;2022-10-16T04:51:53;6.50;;;1.00;;
13487;SDS011;6816;48.506;9.050;2022-10-16T04:54:54;2.53;;;1.10;;
13487;SDS011;6816;48.506;9.050;2022-10-16T04:57:56;2.17;;;1.07;;
13487;SDS011;6816;48.506;9.050;2022-10-16T05:00:57;2.93;;;1.00;;
13487;SDS011;6816;48.506;9.050;2022-10-16T05:03:57;6.03;;;1.10;;
13487;SDS011;6816;48.506;9.050;2022-10-16T05:06:58;3.33;;;1.20;;
13487;SDS011;6816;48.506;9.050;2022-10-16T05:09:58;4.57;;;1.00;;
13487;SDS011;6816;48.506;9.050;2022-10-16T05:12:59;3.17;;;1.30;;
13487;SDS011;6816;48.506;9.050;2022-10-16T05:16:00;2.87;;;1.07;;
13487;SDS011;6816;48.506;9.050;2022-10-16T05:19:00;1.60;;;1.20;;
13487;SDS011;6816;48.506;9.050;2022-10-16T05:22:01;3.10;;;1.40;;
13487;SDS011;6816;48.506;9.050;2022-10-16T05:25:01;5.23;;;1.43;;
13487;SDS011;6816;48.506;9.050;2022-10-16T05:28:02;1.87;;;1.20;;
13487;SDS011;6816;48.506;9.050;2022-10-16T05:31:04;4.93;;;1.40;;
13487;SDS011;6816;48.506;9.050;2022-10-16T05:34:06;3.33;;;1.37;;
13487;SDS011;6816;48.506;9.050;2022-10-16T05:37:07;3.63;;;1.27;;
13487;SDS011;6816;48.506;9.050;2022-10-16T05:40:08;2.43;;;1.23;;
13487;SDS011;6816;48.506;9.050;2022-10-16T05:43:09;2.63;;;1.20;;
13487;SDS011;6816;48.506;9.050;2022-10-16T05:46:10;1.87;;;1.37;;
13487;SDS011;6816;48.506;9.050;2022-10-16T05:49:10;3.47;;;1.33;;
13487;SDS011;6816;48.506;9.050;2022-10-16T05:52:11;2.13;;;1.50;;
13487;SDS011;6816;48.506;9.050;2022-10-16T05:55:11;6.60;;;1.83;;
13487;SDS011;6816;48.506;9.050;2022-10-16T05:58:12;1.77;;;1.20;;
13487;SDS011;6816;48.506;9.050;2022-10-16T06:01:14;4.33;;;1.43;;
13487;SDS011;6816;48.506;9.050;2022-10-16T06:04:16;2.60;;;1.57;;
13487;SDS011;6816;48.506;9.050;2022-10-16T06:07:17;1.67;;;1.30;;
13487;SDS011;6816;48.506;9.050;2022-10-16T06:10:17;1.90;;;1.10;;
13487;SDS011;6816;48.506;9.050;2022-10-16T06:13:18;5.27;;;1.20;;
13487;SDS011;6816;48.506;9.050;2022-10-16T06:16:19;2.80;;;1.40;;
13487;SDS011;6816;48.506;9.050;2022-10-16T06:19:20;4.33;;;1.40;;
13487;SDS011;6816;48.506;9.050;2022-10-16T06:22:20;2.50;;;1.30;;
13487;SDS011;6816;48.506;9.050;2022-10-16T06:25:21;3.23;;;1.23;;
13487;SDS011;6816;48.506;9.050;2022-10-16T06:28:22;6.47;;;1.20;;
13487;SDS011;6816;48.506;9.050;2022-10-16T06:31:22;2.60;;;1.27;;
13487;SDS011;6816;48.506;9.050;2022-10-16T06:34:27;2.57;;;1.20;;
13487;SDS011;6816;48.506;9.050;2022-10-16T06:37:28;1.43;;;1.20;;
13487;SDS011;6816;48.506;9.050;2022-10-16T06:40:28;3.80;;;1.30;;
13487;SDS011;6816;48.506;9.050;2022-10-16T06:43:29;2.80;;;1.40;;
13487;SDS011;6816;48.506;9.050;2022-10-16T06:46:35;1.40;;;1.30;;
13487;SDS011;6816;48.506;9.050;2022-10-16T06:49:35;3.30;;;1.40;;
13487;SDS011;6816;48.506;9.050;2022-10-16T06:52:36;4.60;;;1.27;;
13487;SDS011;6816;48.506;9.050;2022-10-16T06:55:37;3.67;;;1.67;;
13487;SDS011;6816;48.506;9.050;2022-10-16T06:58:37;4.60;;;1.70;;
13487;SDS011;6816;48.506;9.050;2022-10-16T07:01:38;6.00;;;1.70;;
13487;SDS011;6816;48.506;9.050;2022-10-16T07:04:39;4.90;;;1.43;;
13487;SDS011;6816;48.506;9.050;2022-10-16T07:07:40;7.33;;;1.40;;
13487;SDS011;6816;48.506;9.050;2022-10-16T07:10:40;1.63;;;1.27;;
13487;SDS011;6816;48.506;9.050;2022-10-16T07:13:42;4.20;;;1.57;;
13487;SDS011;6816;48.506;9.050;2022-10-16T07:16:43;2.53;;;1.40;;
13487;SDS011;6816;48.506;9.050;2022-10-16T07:19:44;6.93;;;2.00;;
13487;SDS011;6816;48.506;9.050;2022-10-16T07:22:45;4.23;;;1.50;;
13487;SDS011;6816;48.506;9.050;2022-10-16T07:25:52;4.20;;;1.53;;
13487;SDS011;6816;48.506;9.050;2022-10-16T07:28:54;1.90;;;1.40;;
13487;SDS011;6816;48.506;9.050;2022-10-16T07:31:55;1.30;;;1.20;;
13487;SDS011;6816;48.506;9.050;2022-10-16T07:34:55;5.23;;;1.60;;
13487;SDS011;6816;48.506;9.050;2022-10-16T07:37:56;2.23;;;1.37;;
13487;SDS011;6816;48.506;9.050;2022-10-16T07:40:57;1.57;;;1.37;;
13487;SDS011;6816;48.506;9.050;2022-10-16T07:43:59;4.90;;;1.73;;
13487;SDS011;6816;48.506;9.050;2022-10-16T07:47:00;2.60;;;1.23;;
13487;SDS011;6816;48.506;9.050;2022-10-16T07:50:01;2.80;;;1.73;;
13487;SDS011;6816;48.506;9.050;2022-10-16T07:53:01;3.70;;;1.90;;
13487;SDS011;6816;48.506;9.050;2022-10-16T07:56:04;4.63;;;1.57;;
13487;SDS011;6816;48.506;9.050;2022-10-16T07:59:06;2.67;;;1.80;;
13487;SDS011;6816;48.506;9.050;2022-10-16T08:02:07;2.27;;;1.40;;
13487;SDS011;6816;48.506;9.050;2022-10-16T08:05:07;1.73;;;1.57;;
13487;SDS011;6816;48.506;9.050;2022-10-16T08:08:11;4.88;;;1.73;;
13487;SDS011;6816;48.506;9.050;2022-10-16T08:11:14;1.40;;;1.30;;
13487;SDS011;6816;48.506;9.050;2022-10-16T08:14:15;4.40;;;1.60;;
13487;SDS011;6816;48.506;9.050;2022-10-16T08:17:15;2.40;;;1.40;;
13487;SDS011;6816;48.506;9.050;2022-10-16T08:20:16;4.47;;;1.43;;
13487;SDS011;6816;48.506;9.050;2022-10-16T08:23:17;1.92;;;1.30;;
13487;SDS011;6816;48.506;9.050;2022-10-16T08:26:17;3.00;;;1.20;;
13487;SDS011;6816;48.506;9.050;2022-10-16T08:29:19;2.20;;;1.43;;
13487;SDS011;6816;48.506;9.050;2022-10-16T08:32:19;1.85;;;1.33;;
13487;SDS011;6816;48.506;9.050;2022-10-16T08:35:20;2.08;;;1.50;;
13487;SDS011;6816;48.506;9.050;2022-10-16T08:38:21;1.30;;;1.20;;
13487;SDS011;6816;48.506;9.050;2022-10-16T08:51:24;3.72;;;1.58;;
13487;SDS011;6816;48.506;9.050;2022-10-16T08:54:51;1.60;;;1.40;;
13487;SDS011;6816;48.506;9.050;2022-10-16T08:57:55;1.38;;;1.25;;
13487;SDS011;6816;48.506;9.050;2022-10-16T09:00:57;1.55;;;1.45;;
13487;SDS011;6816;48.506;9.050;2022-10-16T09:07:49;2.22;;;1.40;;
13487;SDS011;6816;48.506;9.050;2022-10-16T09:11:21;1.50;;;1.40;;
13487;SDS011;6816;48.506;9.050;2022-10-16T09:18:01;3.75;;;1.65;;
13487;SDS011;6816;48.506;9.050;2022-10-16T09:24:21;4.22;;;1.50;;
13487;SDS011;6816;48.506;9.050;2022-10-16T09:27:25;1.52;;;1.42;;
13487;SDS011;6816;48.506;9.050;2022-10-16T09:30:27;2.00;;;1.80;;
13487;SDS011;6816;48.506;9.050;2022-10-16T09:33:36;3.53;;;1.67;;
13487;SDS011;6816;48.506;9.050;2022-10-16T09:36:40;3.05;;;1.65;;
13487;SDS011;6816;48.506;9.050;2022-10-16T09:39:48;2.15;;;1.80;;
13487;SDS011;6816;48.506;9.050;2022-10-16T09:42:56;4.90;;;1.98;;
13487;SDS011;6816;48.506;9.050;2022-10-16T09:46:04;2.22;;;1.20;;
13487;SDS011;6816;48.506;9.050;2022-10-16T09:49:23;2.10;;;1.20;;
13487;SDS011;6816;48.506;9.050;2022-10-16T09:52:25;2.10;;;1.40;;
13487;SDS011;6816;48.506;9.050;2022-10-16T09:55:26;1.55;;;1.27;;
13487;SDS011;6816;48.506;9.050;2022-10-16T09:58:27;1.30;;;1.20;;
13487;SDS011;6816;48.506;9.050;2022-10-16T10:02:11;1.33;;;1.23;;
13487;SDS011;6816;48.506;9.050;2022-10-16T10:04:53;1.30;;;1.20;;
13487;SDS011;6816;48.506;9.050;2022-10-16T10:07:58;1.20;;;1.10;;
13487;SDS011;6816;48.506;9.050;2022-10-16T10:11:02;1.55;;;1.45;;
13487;SDS011;6816;48.506;9.050;2022-10-16T10:14:05;1.73;;;1.42;;
13487;SDS011;6816;48.506;9.050;2022-10-16T10:17:18;1.63;;;1.10;;
13487;SDS011;6816;48.506;9.050;2022-10-16T10:23:27;1.42;;;1.33;;
13487;SDS011;6816;48.506;9.050;2022-10-16T10:26:30;2.28;;;1.98;;
13487;SDS011;6816;48.506;9.050;2022-10-16T10:29:39;1.83;;;1.50;;
13487;SDS011;6816;48.506;9.050;2022-10-16T10:32:55;2.33;;;1.10;;
13487;SDS011;6816;48.506;9.050;2022-10-16T10:36:25;5.78;;;1.33;;
13487;SDS011;6816;48.506;9.050;2022-10-16T10:39:35;1.85;;;1.10;;
13487;SDS011;6816;48.506;9.050;2022-10-16T10:42:53;1.20;;;1.10;;
13487;SDS011;6816;48.506;9.050;2022-10-16T10:46:19;1.90;;;1.10;;
13487;SDS011;6816;48.506;9.050;2022-10-16T10:55:45;3.80;;;1.25;;
13487;SDS011;6816;48.506;9.050;2022-10-16T10:59:02;2.25;;;1.30;;
13487;SDS011;6816;48.506;9.050;2022-10-16T11:08:38;1.45;;;1.20;;
13487;SDS011;6816;48.506;9.050;2022-10-16T11:11:53;2.83;;;1.33;;
13487;SDS011;6816;48.506;9.050;2022-10-16T11:15:00;1.85;;;1.23;;
13487;SDS011;6816;48.506;9.050;2022-10-16T11:21:45;1.30;;;1.20;;
13487;SDS011;6816;48.506;9.050;2022-10-16T11:34:50;2.78;;;1.13;;
13487;SDS011;6816;48.506;9.050;2022-10-16T11:37:56;1.20;;;1.10;;
13487;SDS011;6816;48.506;9.050;2022-10-16T11:41:24;1.00;;;1.00;;
13487;SDS011;6816;48.506;9.050;2022-10-16T11:47:45;1.02;;;0.90;;
13487;SDS011;6816;48.506;9.050;2022-10-16T11:50:56;2.33;;;0.95;;
13487;SDS011;6816;48.506;9.050;2022-10-16T11:57:21;1.40;;;1.30;;
13487;SDS011;6816;48.506;9.050;2022-10-16T12:00:28;1.88;;;1.23;;
13487;SDS011;6816;48.506;9.050;2022-10-16T12:10:21;1.08;;;0.90;;
13487;SDS011;6816;48.506;9.050;2022-10-16T12:13:35;1.10;;;1.00;;
13487;SDS011;6816;48.506;9.050;2022-10-16T12:16:38;2.47;;;1.08;;
13487;SDS011;6816;48.506;9.050;2022-10-16T12:20:12;1.02;;;1.00;;
13487;SDS011;6816;48.506;9.050;2022-10-16T12:23:30;1.17;;;1.10;;
13487;SDS011;6816;48.506;9.050;2022-10-16T12:26:39;2.05;;;1.25;;
13487;SDS011;6816;48.506;9.050;2022-10-16T12:29:44;0.90;;;0.90;;
13487;SDS011;6816;48.506;9.050;2022-10-16T12:32:45;2.88;;;1.10;;
13487;SDS011;6816;48.506;9.050;2022-10-16T12:35:54;0.95;;;0.85;;
13487;SDS011;6816;48.506;9.050;2022-10-16T12:38:56;2.00;;;1.23;;
13487;SDS011;6816;48.506;9.050;2022-10-16T12:42:01;1.20;;;1.10;;
13487;SDS011;6816;48.506;9.050;2022-10-16T12:45:13;1.08;;;1.08;;
13487;SDS011;6816;48.506;9.050;2022-10-16T12:48:31;1.25;;;1.02;;
13487;SDS011;6816;48.506;9.050;2022-10-16T12:54:36;1.20;;;1.10;;
13487;SDS011;6816;48.506;9.050;2022-10-16T13:00:56;1.30;;;1.20;;
13487;SDS011;6816;48.506;9.050;2022-10-16T13:04:02;1.20;;;1.10;;
13487;SDS011;6816;48.506;9.050;2022-10-16T13:20:44;2.28;;;1.33;;
13487;SDS011;6816;48.506;9.050;2022-10-16T13:30:56;1.70;;;1.27;;
13487;SDS011;6816;48.506;9.050;2022-10-16T13:33:59;1.40;;;1.27;;
13487;SDS011;6816;48.506;9.050;2022-10-16T13:37:00;2.53;;;1.27;;
13487;SDS011;6816;48.506;9.050;2022-10-16T13:40:09;1.13;;;1.02;;
13487;SDS011;6816;48.506;9.050;2022-10-16T13:43:22;1.42;;;1.33;;
13487;SDS011;6816;48.506;9.050;2022-10-16T13:46:26;1.33;;;1.23;;
13487;SDS011;6816;48.506;9.050;2022-10-16T13:49:26;1.40;;;1.30;;
13487;SDS011;6816;48.506;9.050;2022-10-16T13:52:27;1.70;;;1.30;;
13487;SDS011;6816;48.506;9.050;2022-10-16T13:55:28;1.10;;;1.10;;
13487;SDS011;6816;48.506;9.050;2022-10-16T13:58:29;1.55;;;1.40;;
13487;SDS011;6816;48.506;9.050;2022-10-16T14:01:31;4.47;;;1.60;;
13487;SDS011;6816;48.506;9.050;2022-10-16T14:04:43;2.05;;;1.40;;
13487;SDS011;6816;48.506;9.050;2022-10-16T14:07:44;3.45;;;1.20;;
13487;SDS011;6816;48.506;9.050;2022-10-16T14:10:51;1.17;;;1.15;;
13487;SDS011;6816;48.506;9.050;2022-10-16T14:13:54;1.30;;;1.20;;
13487;SDS011;6816;48.506;9.050;2022-10-16T14:16:55;1.42;;;1.33;;
13487;SDS011;6816;48.506;9.050;2022-10-16T14:19:57;1.40;;;1.30;;
13487;SDS011;6816;48.506;9.050;2022-10-16T14:23:44;1.83;;;1.30;;
13487;SDS011;6816;48.506;9.050;2022-10-16T14:26:23;1.70;;;1.60;;
13487;SDS011;6816;48.506;9.050;2022-10-16T14:29:27;3.78;;;1.58;;
13487;SDS011;6816;48.506;9.050;2022-10-16T14:32:31;2.47;;;1.70;;
13487;SDS011;6816;48.506;9.050;2022-10-16T14:35:36;2.00;;;1.27;;
13487;SDS011;6816;48.506;9.050;2022-10-16T14:38:39;1.40;;;1.30;;
13487;SDS011;6816;48.506;9.050;2022-10-16T14:41:48;1.70;;;1.60;;
13487;SDS011;6816;48.506;9.050;2022-10-16T14:44:50;2.80;;;1.50;;
13487;SDS011;6816;48.506;9.050;2022-10-16T14:47:57;1.85;;;1.42;;
13487;SDS011;6816;48.506;9.050;2022-10-16T14:51:00;3.40;;;1.70;;
13487;SDS011;6816;48.506;9.050;2022-10-16T14:54:01;2.88;;;2.35;;
13487;SDS011;6816;48.506;9.050;2022-10-16T14:57:01;4.38;;;2.33;;
13487;SDS011;6816;48.506;9.050;2022-10-16T15:00:03;2.30;;;2.10;;
13487;SDS011;6816;48.506;9.050;2022-10-16T15:03:10;2.67;;;1.75;;
13487;SDS011;6816;48.506;9.050;2022-10-16T15:06:11;1.90;;;1.80;;
13487;SDS011;6816;48.506;9.050;2022-10-16T15:09:13;1.75;;;1.38;;
13487;SDS011;6816;48.506;9.050;2022-10-16T15:12:14;1.50;;;1.40;;
13487;SDS011;6816;48.506;9.050;2022-10-16T15:18:15;4.55;;;1.50;;
13487;SDS011;6816;48.506;9.050;2022-10-16T15:21:22;1.60;;;1.50;;
13487;SDS011;6816;48.506;9.050;2022-10-16T15:24:29;1.75;;;1.63;;
13487;SDS011;6816;48.506;9.050;2022-10-16T15:27:29;6.95;;;1.90;;
13487;SDS011;6816;48.506;9.050;2022-10-16T15:30:30;6.43;;;1.73;;
13487;SDS011;6816;48.506;9.050;2022-10-16T15:33:31;3.45;;;2.10;;
13487;SDS011;6816;48.506;9.050;2022-10-16T15:36:35;3.50;;;1.88;;
13487;SDS011;6816;48.506;9.050;2022-10-16T15:39:37;2.85;;;1.60;;
13487;SDS011;6816;48.506;9.050;2022-10-16T15:42:37;1.98;;;1.73;;
13487;SDS011;6816;48.506;9.050;2022-10-16T15:45:38;4.40;;;1.50;;
13487;SDS011;6816;48.506;9.050;2022-10-16T15:48:39;5.88;;;1.98;;
13487;SDS011;6816;48.506;9.050;2022-10-16T15:51:40;2.22;;;2.10;;
13487;SDS011;6816;48.506;9.050;2022-10-16T15:54:41;2.65;;;2.17;;
13487;SDS011;6816;48.506;9.050;2022-10-16T15:57:42;2.25;;;2.05;;
13487;SDS011;6816;48.506;9.050;2022-10-16T16:00:43;5.30;;;1.77;;
13487;SDS011;6816;48.506;9.050;2022-10-16T16:03:44;4.88;;;1.85;;
13487;SDS011;6816;48.506;9.050;2022-10-16T16:06:45;4.45;;;1.67;;
13487;SDS011;6816;48.506;9.050;2022-10-16T16:09:45;4.18;;;1.83;;
13487;SDS011;6816;48.506;9.050;2022-10-16T16:12:47;6.72;;;2.50;;
13487;SDS011;6816;48.506;9.050;2022-10-16T16:15:51;3.03;;;1.75;;
13487;SDS011;6816;48.506;9.050;2022-10-16T16:18:52;3.67;;;2.20;;
13487;SDS011;6816;48.506;9.050;2022-10-16T16:21:53;3.47;;;2.00;;
13487;SDS011;6816;48.506;9.050;2022-10-16T16:24:54;5.63;;;1.98;;
13487;SDS011;6816;48.506;9.050;2022-10-16T16:27:54;4.63;;;2.05;;
13487;SDS011;6816;48.506;9.050;2022-10-16T16:30:55;3.50;;;2.45;;
13487;SDS011;6816;48.506;9.050;2022-10-16T16:33:56;7.97;;;2.40;;
13487;SDS011;6816;48.506;9.050;2022-10-16T16:36:56;7.55;;;3.25;;
13487;SDS011;6816;48.506;9.050;2022-10-16T16:39:58;13.15;;;2.90;;
13487;SDS011;6816;48.506;9.050;2022-10-16T16:42:58;4.05;;;2.70;;
13487;SDS011;6816;48.506;9.050;2022-10-16T16:45:59;3.75;;;2.20;;
13487;SDS011;6816;48.506;9.050;2022-10-16T16:49:03;7.40;;;2.33;;
13487;SDS011;6816;48.506;9.050;2022-10-16T16:52:04;3.67;;;2.40;;
13487;SDS011;6816;48.506;9.050;2022-10-16T16:55:05;4.38;;;2.70;;
13487;SDS011;6816;48.506;9.050;2022-10-16T16:58:05;4.25;;;2.35;;
13487;SDS011;6816;48.506;9.050;2022-10-16T17:01:08;3.33;;;2.33;;
13487;SDS011;6816;48.506;9.050;2022-10-16T17:04:10;3.20;;;2.60;;
13487;SDS011;6816;48.506;9.050;2022-10-16T17:07:11;3.83;;;2.50;;
13487;SDS011;6816;48.506;9.050;2022-10-16T17:10:12;4.10;;;2.35;;
13487;SDS011;6816;48.506;9.050;2022-10-16T17:13:12;5.03;;;2.60;;
13487;SDS011;6816;48.506;9.050;2022-10-16T17:16:13;2.97;;;2.25;;
13487;SDS011;6816;48.506;9.050;2022-10-16T17:19:15;3.65;;;2.67;;
13487;SDS011;6816;48.506;9.050;2022-10-16T17:22:18;4.63;;;2.72;;
13487;SDS011;6816;48.506;9.050;2022-10-16T17:25:19;4.35;;;2.22;;
13487;SDS011;6816;48.506;9.050;2022-10-16T17:28:20;5.53;;;3.38;;
13487;SDS011;6816;48.506;9.050;2022-10-16T17:31:25;8.15;;;5.05;;
13487;SDS011;6816;48.506;9.050;2022-10-16T17:34:30;8.23;;;4.82;;
13487;SDS011;6816;48.506;9.050;2022-10-16T17:37:31;7.72;;;3.70;;
13487;SDS011;6816;48.506;9.050;2022-10-16T17:40:32;3.58;;;3.25;;
13487;SDS011;6816;48.506;9.050;2022-10-16T17:43:33;4.05;;;3.53;;
13487;SDS011;6816;48.506;9.050;2022-10-16T17:46:34;6.15;;;4.07;;
13487;SDS011;6816;48.506;9.050;2022-10-16T17:49:35;9.23;;;6.32;;
13487;SDS011;6816;48.506;9.050;2022-10-16T17:52:35;5.18;;;4.68;;
13487;SDS011;6816;48.506;9.050;2022-10-16T17:55:40;6.90;;;4.75;;
13487;SDS011;6816;48.506;9.050;2022-10-16T17:58:42;4.73;;;4.27;;
13487;SDS011;6816;48.506;9.050;2022-10-16T18:01:42;5.37;;;4.07;;
13487;SDS011;6816;48.506;9.050;2022-10-16T18:04:45;5.70;;;4.57;;
13487;SDS011;6816;48.506;9.050;2022-10-16T18:07:45;5.80;;;4.07;;
13487;SDS011;6816;48.506;9.050;2022-10-16T18:10:47;6.30;;;5.70;;
13487;SDS011;6816;48.506;9.050;2022-10-16T18:13:52;12.57;;;9.80;;
13487;SDS011;6816;48.506;9.050;2022-10-16T18:16:55;15.40;;;11.07;;
13487;SDS011;6816;48.506;9.050;2022-10-16T18:19:56;9.27;;;7.57;;
13487;SDS011;6816;48.506;9.050;2022-10-16T18:22:57;9.50;;;6.30;;
13487;SDS011;6816;48.506;9.050;2022-10-16T18:25:58;7.83;;;6.20;;
13487;SDS011;6816;48.506;9.050;2022-10-16T18:28:58;8.87;;;6.07;;
13487;SDS011;6816;48.506;9.050;2022-10-16T18:32:01;9.90;;;5.45;;
13487;SDS011;6816;48.506;9.050;2022-10-16T18:35:01;5.17;;;4.67;;
13487;SDS011;6816;48.506;9.050;2022-10-16T18:38:02;6.80;;;5.80;;
13487;SDS011;6816;48.506;9.050;2022-10-16T18:41:03;8.87;;;6.17;;
13487;SDS011;6816;48.506;9.050;2022-10-16T18:44:07;6.60;;;5.73;;
13487;SDS011;6816;48.506;9.050;2022-10-16T18:47:12;8.53;;;6.80;;
13487;SDS011;6816;48.506;9.050;2022-10-16T18:50:12;6.23;;;5.60;;
13487;SDS011;6816;48.506;9.050;2022-10-16T18:53:13;6.73;;;5.43;;
13487;SDS011;6816;48.506;9.050;2022-10-16T18:56:14;6.13;;;5.50;;
13487;SDS011;6816;48.506;9.050;2022-10-16T18:59:16;5.47;;;4.97;;
13487;SDS011;6816;48.506;9.050;2022-10-16T19:02:16;8.87;;;4.70;;
13487;SDS011;6816;48.506;9.050;2022-10-16T19:05:17;8.40;;;4.40;;
13487;SDS011;6816;48.506;9.050;2022-10-16T19:08:18;5.63;;;3.97;;
13487;SDS011;6816;48.506;9.050;2022-10-16T19:11:19;3.70;;;3.40;;
13487;SDS011;6816;48.506;9.050;2022-10-16T19:14:22;4.17;;;3.10;;
13487;SDS011;6816;48.506;9.050;2022-10-16T19:17:24;7.10;;;2.90;;
13487;SDS011;6816;48.506;9.050;2022-10-16T19:20:24;6.53;;;2.53;;
13487;SDS011;6816;48.506;9.050;2022-10-16T19:23:25;3.70;;;2.50;;
13487;SDS011;6816;48.506;9.050;2022-10-16T19:26:27;3.90;;;2.53;;
13487;SDS011;6816;48.506;9.050;2022-10-16T19:29:28;7.90;;;2.90;;
13487;SDS011;6816;48.506;9.050;2022-10-16T19:32:30;5.47;;;2.93;;
13487;SDS011;6816;48.506;9.050;2022-10-16T19:35:32;7.13;;;3.07;;
13487;SDS011;6816;48.506;9.050;2022-10-16T19:38:33;8.40;;;4.23;;
13487;SDS011;6816;48.506;9.050;2022-10-16T19:41:35;18.43;;;9.13;;
13487;SDS011;6816;48.506;9.050;2022-10-16T19:44:36;26.97;;;14.50;;
13487;SDS011;6816;48.506;9.050;2022-10-16T19:47:37;26.10;;;16.33;;
13487;SDS011;6816;48.506;9.050;2022-10-16T19:50:44;30.83;;;19.80;;
13487;SDS011;6816;48.506;9.050;2022-10-16T19:53:45;30.70;;;17.70;;
13487;SDS011;6816;48.506;9.050;2022-10-16T19:56:46;25.47;;;15.40;;
13487;SDS011;6816;48.506;9.050;2022-10-16T19:59:49;20.53;;;12.20;;
13487;SDS011;6816;48.506;9.050;2022-10-16T20:02:51;18.13;;;11.47;;
13487;SDS011;6816;48.506;9.050;2022-10-16T20:05:52;14.17;;;9.70;;
13487;SDS011;6816;48.506;9.050;2022-10-16T20:08:54;15.37;;;8.67;;
13487;SDS011;6816;48.506;9.050;2022-10-16T20:11:57;12.33;;;8.23;;
13487;SDS011;6816;48.506;9.050;2022-10-16T20:14:58;12.17;;;7.80;;
13487;SDS011;6816;48.506;9.050;2022-10-16T20:17:58;10.97;;;7.40;;
13487;SDS011;6816;48.506;9.050;2022-10-16T20:20:59;13.03;;;7.43;;
13487;SDS011;6816;48.506;9.050;2022-10-16T20:24:00;11.33;;;6.87;;
13487;SDS011;6816;48.506;9.050;2022-10-16T20:27:04;7.07;;;5.60;;
13487;SDS011;6816;48.506;9.050;2022-10-16T20:30:04;6.13;;;4.30;;